createdAt,value
2019-04-14T00:03:07.055Z,6.03
2019-04-14T00:08:13.417Z,6.10
2019-04-14T00:13:19.594Z,6.02
2019-04-14T00:18:25.183Z,5.98
2019-04-14T00:23:30.623Z,6.00
2019-04-14T00:34:24.513Z,6.09
2019-04-14T00:39:33.644Z,6.19
2019-04-14T00:44:45.245Z,6.21
2019-04-14T00:49:50.997Z,6.22
2019-04-14T00:54:56.546Z,6.28
2019-04-14T01:00:02.088Z,6.24
2019-04-14T01:05:08.923Z,6.18
2019-04-14T01:10:15.053Z,6.12
2019-04-14T01:15:20.537Z,6.09
2019-04-14T01:20:26.064Z,6.10
2019-04-14T01:25:32.434Z,6.12
2019-04-14T01:30:39.359Z,6.15
2019-04-14T01:35:44.965Z,6.14
2019-04-14T01:40:51.008Z,6.06
2019-04-14T01:46:07.216Z,5.99
2019-04-14T01:51:11.387Z,6.08
2019-04-14T01:56:27.794Z,6.15
2019-04-14T02:01:34.615Z,6.13
2019-04-14T02:06:40.252Z,6.14
2019-04-14T02:11:46.618Z,6.05
2019-04-14T02:16:56.103Z,6.05
2019-04-14T02:22:00.535Z,6.02
2019-04-14T02:27:06.211Z,6.03
2019-04-14T02:37:54.485Z,6.08
2019-04-14T02:42:54.746Z,6.06
2019-04-14T02:48:20.467Z,6.06
2019-04-14T02:53:18.081Z,6.06
2019-04-14T02:58:20.499Z,6.02
2019-04-14T03:08:39.794Z,5.92
2019-04-14T03:13:41.166Z,5.91
2019-04-14T03:29:23.376Z,5.92
2019-04-14T03:49:45.400Z,5.77
2019-04-14T03:54:52.634Z,5.77
2019-04-14T03:59:37.674Z,5.62
2019-04-14T04:04:43.046Z,5.61
2019-04-14T04:09:54.123Z,5.64
2019-04-14T04:14:59.754Z,5.49
2019-04-14T04:20:17.411Z,5.38
2019-04-14T04:25:28.996Z,5.28
2019-04-14T04:30:42.669Z,5.40
2019-04-14T04:35:56.264Z,5.38
2019-04-14T04:41:02.017Z,5.21
2019-04-14T04:46:07.504Z,5.05
2019-04-14T04:51:13.941Z,5.10
2019-04-14T04:56:20.518Z,5.03
2019-04-14T05:01:27.386Z,4.97
2019-04-14T05:06:50.643Z,4.85
2019-04-14T05:12:04.456Z,4.83
2019-04-14T05:17:10.244Z,4.77
2019-04-14T05:22:17.808Z,4.69
2019-04-14T05:27:25.319Z,4.64
2019-04-14T05:32:31.038Z,4.60
2019-04-14T05:37:37.754Z,4.55
2019-04-14T05:42:43.333Z,4.57
2019-04-14T05:47:50.021Z,4.54
2019-04-14T05:52:55.855Z,4.67
2019-04-14T05:58:03.523Z,4.49
2019-04-14T06:03:10.192Z,4.58
2019-04-14T06:08:15.845Z,4.61
2019-04-14T06:13:21.362Z,4.48
2019-04-14T06:18:26.879Z,4.47
2019-04-14T06:23:32.469Z,4.49
2019-04-14T06:28:38.034Z,4.62
2019-04-14T06:33:51.997Z,4.49
2019-04-14T06:39:04.348Z,4.47
2019-04-14T06:44:09.869Z,4.46
2019-04-14T06:49:15.286Z,4.47
2019-04-14T06:54:20.952Z,4.49
2019-04-14T06:59:26.429Z,4.46
2019-04-14T07:04:32.032Z,4.45
2019-04-14T07:09:37.632Z,4.49
2019-04-14T07:14:43.298Z,4.58
2019-04-14T07:20:01.018Z,4.68
2019-04-14T07:24:55.946Z,4.50
2019-04-14T07:30:10.043Z,4.55
2019-04-14T07:35:25.527Z,4.55
2019-04-14T07:40:45.735Z,4.55
2019-04-14T07:45:57.748Z,4.67
2019-04-14T07:51:12.082Z,4.62
2019-04-14T07:56:26.959Z,4.65
2019-04-14T08:01:41.541Z,4.69
2019-04-14T08:06:50.401Z,4.73
2019-04-14T08:11:56.215Z,4.70
2019-04-14T08:17:01.945Z,4.83
2019-04-14T08:22:07.757Z,4.70
2019-04-14T08:27:13.476Z,4.78
2019-04-14T08:32:19.119Z,4.78
2019-04-14T08:37:24.820Z,4.80
2019-04-14T08:42:42.751Z,4.93
2019-04-14T08:47:53.879Z,4.99
2019-04-14T08:53:04.867Z,4.95
2019-04-14T08:58:22.316Z,4.96
2019-04-14T09:03:36.168Z,4.95
2019-04-14T09:08:54.458Z,5.04
2019-04-14T09:14:00.124Z,5.19
2019-04-14T09:19:07.931Z,5.27
2019-04-14T09:24:13.218Z,5.43
2019-04-14T09:29:18.837Z,5.59
2019-04-14T09:34:24.560Z,5.64
2019-04-14T09:39:30.278Z,5.70
2019-04-14T09:44:36.000Z,5.87
2019-04-14T09:49:41.882Z,5.91
2019-04-14T09:54:47.606Z,6.17
2019-04-14T09:59:53.259Z,6.22
2019-04-14T10:04:59.019Z,6.17
2019-04-14T10:10:04.808Z,5.98
2019-04-14T10:15:10.599Z,5.91
2019-04-14T10:20:16.375Z,5.88
2019-04-14T10:25:22.101Z,5.88
2019-04-14T10:30:27.786Z,5.90
2019-04-14T10:35:33.275Z,6.00
2019-04-14T10:40:38.824Z,6.03
2019-04-14T10:45:44.490Z,6.05
2019-04-14T10:50:50.131Z,6.15
2019-04-14T10:55:55.794Z,6.17
2019-04-14T11:01:01.711Z,6.11
2019-04-14T11:06:16.033Z,6.18
2019-04-14T11:11:21.768Z,6.13
2019-04-14T11:16:27.754Z,6.09
2019-04-14T11:21:42.492Z,6.02
2019-04-14T11:26:40.514Z,6.07
2019-04-14T11:31:54.051Z,6.16
2019-04-14T11:37:08.098Z,6.18
2019-04-14T11:42:14.065Z,6.18
2019-04-14T11:47:19.696Z,6.17
2019-04-14T11:52:25.345Z,6.22
2019-04-14T11:57:31.504Z,6.24
2019-04-14T12:02:51.985Z,6.34
2019-04-14T12:08:07.191Z,6.51
2019-04-14T12:13:12.961Z,6.56
2019-04-14T12:18:18.631Z,6.83
2019-04-14T12:23:24.811Z,7.07
2019-04-14T12:28:30.373Z,6.96
2019-04-14T12:33:36.028Z,7.00
2019-04-14T12:38:41.811Z,6.88
2019-04-14T12:43:58.152Z,6.78
2019-04-14T12:49:09.292Z,6.62
2019-04-14T12:54:14.772Z,6.67
2019-04-14T12:59:23.384Z,6.57
2019-04-14T13:04:30.941Z,6.68
2019-04-14T13:09:36.624Z,6.52
2019-04-14T13:14:42.461Z,6.45
2019-04-14T13:19:48.391Z,6.46
2019-04-14T13:24:54.153Z,6.48
2019-04-14T13:30:00.042Z,6.56
2019-04-14T13:35:06.062Z,6.74
2019-04-14T13:40:12.190Z,6.90
2019-04-14T13:45:17.950Z,6.78
2019-04-14T13:50:23.610Z,6.77
2019-04-14T13:55:29.276Z,6.77
2019-04-14T14:00:35.067Z,6.76
2019-04-14T14:05:43.438Z,6.75
2019-04-14T14:10:47.876Z,6.75
2019-04-14T14:16:02.078Z,6.79
2019-04-14T14:21:17.657Z,6.69
2019-04-14T14:26:26.717Z,6.69
2019-04-14T14:31:32.502Z,6.69
2019-04-14T14:36:38.096Z,6.72
2019-04-14T14:41:43.817Z,6.71
2019-04-14T14:46:56.855Z,6.70
2019-04-14T14:52:07.457Z,6.68
2019-04-14T14:57:13.095Z,6.58
2019-04-14T15:02:18.746Z,6.60
2019-04-14T15:07:25.162Z,6.70
2019-04-14T15:12:30.827Z,6.53
2019-04-14T15:17:36.507Z,6.28
2019-04-14T15:22:42.165Z,6.13
2019-04-14T15:27:47.727Z,5.94
2019-04-14T15:32:53.330Z,5.99
2019-04-14T15:37:59.216Z,6.08
2019-04-14T15:43:04.926Z,6.03
2019-04-14T15:48:10.443Z,5.88
2019-04-14T15:53:16.086Z,5.88
2019-04-14T15:58:31.708Z,5.92
2019-04-14T16:03:46.110Z,5.93
2019-04-14T16:09:02.063Z,5.97
2019-04-14T16:14:17.056Z,5.95
2019-04-14T16:19:31.064Z,5.90
2019-04-14T16:24:37.130Z,5.80
2019-04-14T16:29:52.063Z,5.78
2019-04-14T16:35:00.501Z,5.71
2019-04-14T16:40:07.385Z,5.78
2019-04-14T16:45:13.741Z,5.94
2019-04-14T16:50:20.462Z,6.03
2019-04-14T16:55:44.843Z,6.17
2019-04-14T17:00:57.386Z,6.42
2019-04-14T17:06:03.065Z,6.53
2019-04-14T17:11:08.842Z,6.38
2019-04-14T17:16:26.319Z,6.40
2019-04-14T17:21:35.528Z,6.40
2019-04-14T17:26:53.366Z,6.47
2019-04-14T17:32:05.809Z,6.45
2019-04-14T17:37:20.658Z,6.37
2019-04-14T17:42:34.142Z,6.34
2019-04-14T17:53:23.108Z,6.43
2019-04-14T18:03:48.942Z,6.45
2019-04-14T18:09:03.145Z,6.41
2019-04-14T18:14:17.524Z,6.36
2019-04-14T18:19:30.102Z,6.37
2019-04-14T18:24:42.097Z,6.45
2019-04-14T18:29:51.876Z,6.23
2019-04-14T18:35:06.873Z,5.93
2019-04-14T18:40:17.299Z,5.88
2019-04-14T18:45:30.411Z,5.97
2019-04-14T18:50:56.341Z,6.06
2019-04-14T18:56:08.143Z,6.11
2019-04-14T19:01:18.076Z,6.09
2019-04-14T19:06:23.765Z,6.07
2019-04-14T19:11:48.077Z,6.08
2019-04-14T19:16:58.546Z,6.22
2019-04-14T19:22:04.131Z,6.29
2019-04-14T19:27:12.621Z,6.24
2019-04-14T19:32:18.205Z,6.20
2019-04-14T19:37:23.902Z,6.06
2019-04-14T19:42:29.549Z,6.01
2019-04-14T19:47:35.302Z,6.11
2019-04-14T19:52:41.004Z,6.19
2019-04-14T19:57:46.464Z,6.05
2019-04-14T20:02:52.165Z,5.97
2019-04-14T20:07:58.121Z,5.93
2019-04-14T20:13:04.325Z,5.91
2019-04-14T20:18:23.210Z,5.89
2019-04-14T20:23:37.678Z,5.87
2019-04-14T20:28:48.377Z,5.89
2019-04-14T20:33:54.807Z,5.97
2019-04-14T20:39:00.402Z,5.95
2019-04-14T20:44:06.582Z,5.91
2019-04-14T20:49:12.329Z,5.99
2019-04-14T20:54:18.113Z,6.02
2019-04-14T20:59:23.805Z,5.99
2019-04-14T21:04:38.804Z,6.04
2019-04-14T21:09:49.669Z,6.10
2019-04-14T21:15:01.399Z,6.21
2019-04-14T21:20:18.703Z,6.19
2019-04-14T21:25:31.642Z,6.27
2019-04-14T21:30:45.339Z,6.31
2019-04-14T21:35:57.224Z,6.31
2019-04-14T21:41:08.063Z,6.31
2019-04-14T21:46:13.942Z,6.37
2019-04-14T21:51:19.565Z,6.36
2019-04-14T21:56:27.082Z,6.43
2019-04-14T22:01:46.008Z,6.52
2019-04-14T22:06:53.222Z,6.56
2019-04-14T22:12:02.296Z,6.58
2019-04-14T22:17:08.122Z,6.65
2019-04-14T22:22:13.650Z,6.77
2019-04-14T22:27:19.676Z,6.88
2019-04-14T22:32:26.005Z,6.93
2019-04-14T22:37:31.382Z,6.94
2019-04-14T22:42:37.063Z,6.83
2019-04-14T22:47:42.462Z,6.81
2019-04-14T22:52:48.107Z,6.85
2019-04-14T22:57:53.785Z,6.79
2019-04-14T23:03:10.269Z,6.84
2019-04-14T23:08:25.426Z,6.88
2019-04-14T23:13:38.645Z,6.90
2019-04-14T23:18:50.375Z,6.91
2019-04-14T23:24:04.971Z,7.00
2019-04-14T23:29:10.749Z,7.02
2019-04-14T23:34:16.262Z,7.01
2019-04-14T23:39:22.060Z,7.05
2019-04-14T23:44:27.945Z,7.06
2019-04-14T23:49:33.580Z,7.14
2019-04-14T23:54:39.310Z,6.83
2019-04-14T23:59:44.870Z,7.01
